עמוד ראשי
METAR-TAF:

METAR-TAF

שדות תעופה :

La Paz, מקסיקו

קו רוחב: 24-04N, קו אורך: 110-22W, גובה: 21מטר

תצפית מזג אוויר נוכחית

הדו"ח נערך לפני 2 שעות ו 38דקות, בשעה 05:49 UTC
רוח 8קשר מכיוון דרום/דרום-מערב
טמפרטורת 19 צלסיוס
לחות 73%
לחץ 1009 hPa
ראות: 16.1קילומטר
שמיים נקיים

METAR: MMLP 160549Z 20008KT 10SM SKC 19/14 A2981 RMK SLP069 52016 HZY

זמן: 02:27 (08:27 UTC)

תחזית

הדו"ח נערך לפני 3 שעות ו 34דקות, בשעה 04:53 UTC
תחזית בתוקף מ 16 ב 06 UTC עד 17 ב 06 UTC
רוח 5קשר מכיוון דרום
ראות: 10קילומטר
שמיים נקיים
מ 16 ב 1700UTC
רוח 10קשר מכיוון מערב/צפון-מערב
ראות: 10קילומטר
שמיים נקיים
יעשה מ
17 ב 02 UTC עד 17 ב 03 UTC
רוח 5קשר מכיוון דרום

TAF: MMLP 160453Z 1606/1706 18005KT P6SM SKC FM161700 30010KT P6SM SKC BECMG 1702/1703 18005KT

תצפיות ותחזיות מזג אוויר לגבי יותר מ- 4,000 שדות תעופה ברחבי העולם. דוחות METAR ו- TAF.

התחנות הזמינות מסומנות בנקודות צהובות ואדומות על גבי המפה.

העבר את העכבר לנקודה הצבעונית על מנת לראות את שם התחנה.

לאחר מכן, לחץ כדי לראות את תוכן ואת תחזיות מזג האוויר.

כדי לשנות את המפה: לחץ על הכפתורים הירוקים עם הפלוס השחור כדי להתקרב; על הכפתור הירוק עם המקף כדי להתרחק; או בחיצים הירוקים למפות סמוכות.


METAR-TAF: